Terminal Aerodrome Forecast
Issued by NWS Knoxville/Tri Cities, TN

Home | Current Version | Previous Version | Text Only | Print | Product List | Glossary On
Versions: 1 2 3 4 5 6 7 8 9 10 11 12 13 14 15 16 17 18 19 20 21 22 23 24 25 26 27 28 29 30 31 32 33 34 35 36 37 38 39 40
000
FTUS44 KMRX 270520
TAFCHA
TAF
KCHA 270520Z 2706/2806 17008KT P6SM SCT050
     FM270900 17010KT P6SM VCTS BKN040CB
     FM271100 18010KT P6SM -TSRA OVC020CB
     FM271600 21010G17KT P6SM BKN035
     FM271900 24010KT P6SM SCT050
     FM272200 27010KT P6SM FEW050
     FM280100 30003KT P6SM SKC=

USA.gov is the U.S. government's official web portal to all federal, state and local government web resources and services.